Time;durP1;ratioP1;P1;durP2;ratioP2;P2;SDS_P1;SDS_P2;PMS_P1;PMS_P2;Temp;Humidity;BMP_temperature;BMP_pressure;BME280_temperature;BME280_humidity;BME280_pressure;Samples;Min_cycle;Max_cycle;Signal;HPM_P1;HPM_P2
2022/11/03 00:01:50;;;;;;;9.07;3.40;;;8.00;99.90;;;-141.84;73.78;19214.34;5031739;28;20948;-61
2022/11/03 00:04:20;;;;;;;8.47;3.93;;;7.90;99.90;;;-141.84;73.66;19212.31;5031924;28;20237;-61
2022/11/03 00:06:51;;;;;;;5.83;3.70;;;7.90;99.90;;;-141.84;73.64;19200.13;5032185;28;20233;-60
2022/11/03 00:09:21;;;;;;;8.23;3.53;;;7.80;99.90;;;-141.84;73.49;19202.16;5031648;28;20233;-60
2022/11/03 00:11:51;;;;;;;9.53;3.87;;;7.90;99.90;;;-141.84;73.71;19214.34;5031176;28;20645;-59
2022/11/03 00:14:20;;;;;;;8.00;3.87;;;7.80;99.90;;;-141.84;74.20;19189.97;5031443;28;20238;-60
2022/11/03 00:16:50;;;;;;;9.33;3.77;;;7.80;99.90;;;-141.84;73.40;19210.28;5031699;28;20226;-62
2022/11/03 00:19:18;;;;;;;6.70;3.77;;;7.80;99.90;;;-141.84;74.00;19179.78;5032226;28;20186;-59
2022/11/03 00:21:46;;;;;;;7.27;3.53;;;7.80;99.90;;;-141.84;73.91;19200.13;5011937;28;20226;-62
2022/11/03 00:24:14;;;;;;;5.70;3.27;;;7.80;99.90;;;-141.84;73.79;19147.28;5027408;28;20269;-60
2022/11/03 00:26:42;;;;;;;6.23;3.70;;;7.80;99.90;;;-141.84;74.01;19179.78;5031488;28;20234;-59
2022/11/03 00:29:13;;;;;;;7.60;3.90;;;7.80;99.90;;;-141.84;73.98;19212.31;5031205;28;20229;-61
2022/11/03 00:31:44;;;;;;;9.40;3.90;;;7.80;99.90;;;-141.84;73.01;19224.50;5031068;28;20226;-59
2022/11/03 00:34:14;;;;;;;8.00;3.43;;;7.90;99.90;;;-141.84;73.51;19183.84;5031892;28;20210;-61
2022/11/03 00:36:44;;;;;;;7.37;3.90;;;8.00;99.90;;;-141.84;74.31;19198.09;5033467;28;20440;-59
2022/11/03 00:39:13;;;;;;;6.10;3.83;;;7.90;99.90;;;-141.84;73.93;19187.91;5051191;28;20252;-60
2022/11/03 00:41:41;;;;;;;7.30;3.87;;;8.10;99.90;;;-141.84;74.11;19212.31;5020538;28;20280;-61
2022/11/03 00:44:09;;;;;;;7.80;3.80;;;8.00;99.90;;;-141.84;73.22;19202.16;5017238;28;20704;-61
2022/11/03 00:46:38;;;;;;;8.50;3.93;;;8.00;99.90;;;-141.84;74.04;19194.03;5030978;28;20223;-61
2022/11/03 00:49:07;;;;;;;6.03;3.60;;;8.00;99.90;;;-141.84;74.47;19204.19;5031577;28;20268;-60
2022/11/03 00:51:36;;;;;;;6.47;3.50;;;8.00;99.90;;;-141.84;75.44;19163.53;5030871;28;20249;-61
2022/11/03 00:54:07;;;;;;;7.80;3.90;;;7.90;99.90;;;-141.84;75.57;19175.72;5030817;28;20230;-61
2022/11/03 00:56:37;;;;;;;6.90;3.70;;;7.80;99.90;;;-141.84;75.44;19141.19;5020611;28;20237;-61
2022/11/03 00:59:08;;;;;;;5.77;3.67;;;7.80;99.90;;;-141.84;75.58;19173.69;5010755;28;20234;-59
2022/11/03 01:01:40;;;;;;;6.23;3.70;;;7.80;99.90;;;-141.84;75.11;19173.69;5008924;28;20209;-60
2022/11/03 01:07:05;;;;;;;6.90;3.57;;;7.80;99.90;;;-141.84;76.05;19118.84;4995857;28;20234;-60
2022/11/03 01:09:37;;;;;;;9.03;3.87;;;7.80;99.90;;;-141.84;74.80;19163.53;5010837;28;20289;-60
2022/11/03 01:12:08;;;;;;;7.17;4.27;;;7.80;99.90;;;-141.84;74.26;19153.38;5010672;28;20315;-62
2022/11/03 01:14:40;;;;;;;6.13;3.90;;;7.80;99.90;;;-141.84;74.70;19151.34;5011006;28;20238;-61
2022/11/03 01:17:11;;;;;;;6.97;4.00;;;7.90;99.90;;;-141.84;74.06;19204.19;5010612;28;20227;-59
2022/11/03 01:19:39;;;;;;;7.47;4.30;;;8.00;99.90;;;-141.84;74.49;19155.41;5011038;28;20186;-62
2022/11/03 01:22:09;;;;;;;9.63;4.27;;;7.90;99.90;;;-141.84;74.95;19173.69;5010854;28;20203;-60
2022/11/03 01:24:38;;;;;;;6.80;3.80;;;7.90;99.90;;;-141.84;75.10;19159.47;5010320;28;20276;-60
2022/11/03 01:27:06;;;;;;;11.07;4.90;;;7.90;99.90;;;-141.84;74.48;19169.63;5010636;28;20860;-61
2022/11/03 01:29:34;;;;;;;7.77;3.87;;;7.90;99.90;;;-141.84;75.61;19155.41;5010795;28;20736;-63
2022/11/03 01:32:02;;;;;;;8.23;4.00;;;7.80;99.90;;;-141.84;75.94;19131.03;5010646;28;20718;-61
2022/11/03 01:34:31;;;;;;;6.30;3.40;;;7.80;99.90;;;-141.84;75.95;19163.53;5010655;28;20226;-60
2022/11/03 01:36:59;;;;;;;7.83;4.00;;;7.70;99.90;;;-141.84;76.79;19126.97;5011026;28;20219;-60
2022/11/03 01:39:29;;;;;;;7.07;3.37;;;7.70;99.90;;;-141.84;77.04;19104.59;5010632;28;20253;-62
2022/11/03 01:41:57;;;;;;;8.93;3.70;;;7.60;99.90;;;-141.84;76.23;19120.88;5010628;28;20659;-60
2022/11/03 01:44:35;;;;;;;7.30;3.70;;;7.60;99.90;;;-141.84;76.17;19124.94;5019419;28;20225;-60
2022/11/03 01:47:13;;;;;;;7.43;4.13;;;7.70;99.90;;;-141.84;76.92;19145.25;5030254;28;20232;-61
2022/11/03 01:49:49;;;;;;;9.13;4.37;;;7.70;99.90;;;-141.84;76.64;19122.91;5030508;28;20237;-60
2022/11/03 01:52:25;;;;;;;6.67;4.20;;;7.70;99.90;;;-141.84;76.20;19151.34;5017418;28;20202;-59
2022/11/03 01:55:02;;;;;;;13.13;5.50;;;7.60;99.90;;;-141.84;76.22;19139.16;5014306;28;20222;-60
2022/11/03 01:57:38;;;;;;;9.27;4.00;;;7.70;99.90;;;-141.84;75.86;19133.06;5029949;28;20233;-60
2022/11/03 02:00:10;;;;;;;7.20;4.03;;;7.70;99.90;;;-141.84;76.55;19129.00;5030527;28;20240;-60
2022/11/03 02:02:38;;;;;;;6.77;4.07;;;7.60;99.90;;;-141.84;77.71;19120.88;5030037;28;20798;-61
2022/11/03 02:05:10;;;;;;;5.30;3.87;;;7.60;99.90;;;-141.84;77.99;19078.19;5030321;28;20222;-60
2022/11/03 02:07:49;;;;;;;7.43;3.97;;;7.60;99.90;;;-141.84;76.96;19080.22;5029825;28;20283;-61
2022/11/03 02:10:20;;;;;;;7.30;3.83;;;7.60;99.90;;;-141.84;77.16;19116.81;5030805;28;20244;-58
2022/11/03 02:12:48;;;;;;;7.70;4.03;;;7.60;99.90;;;-141.84;78.08;19082.25;5030226;28;20700;-61
2022/11/03 02:15:21;;;;;;;6.90;3.50;;;7.60;99.90;;;-141.84;78.13;19080.22;5029988;28;20230;-59
2022/11/03 02:17:53;;;;;;;5.63;3.70;;;7.50;99.90;;;-141.84;77.30;19110.72;5030208;28;20230;-60
2022/11/03 02:20:26;;;;;;;8.03;3.50;;;7.50;99.90;;;-141.84;76.41;19098.50;5030019;28;20229;-60
2022/11/03 02:23:20;;;;;;;7.63;4.07;;;7.60;99.90;;;-141.84;74.80;19131.03;5029908;28;20217;-62
2022/11/03 02:25:53;;;;;;;8.37;3.60;;;7.70;99.90;;;-141.84;75.54;19129.00;5030115;28;20230;-60
2022/11/03 02:28:25;;;;;;;6.77;3.70;;;7.70;99.90;;;-141.84;76.27;19100.53;5029831;28;20186;-61
2022/11/03 02:31:10;;;;;;;8.77;3.77;;;7.70;99.90;;;-141.84;75.11;19155.41;5030586;28;20190;-59
2022/11/03 02:33:51;;;;;;;9.13;4.10;;;7.70;99.90;;;-141.84;75.05;19120.88;5029826;28;20256;-60
2022/11/03 02:36:26;;;;;;;6.40;3.47;;;7.80;99.90;;;-141.84;75.92;19124.94;5033413;28;20225;-60
2022/11/03 02:39:01;;;;;;;5.00;3.40;;;7.70;99.90;;;-141.84;77.53;19100.53;5033260;28;20279;-59
2022/11/03 02:41:35;;;;;;;8.67;3.67;;;7.60;99.90;;;-141.84;77.92;19086.31;5033493;28;20225;-59
2022/11/03 02:44:07;;;;;;;8.23;3.50;;;7.50;99.90;;;-141.84;77.90;19063.97;5032990;28;20724;-63
2022/11/03 02:46:37;;;;;;;6.43;3.53;;;7.50;99.90;;;-141.84;77.77;19076.16;5033550;28;20190;-60
2022/11/03 02:49:05;;;;;;;7.67;4.10;;;7.40;99.90;;;-141.84;77.81;19057.88;5033575;28;20202;-60
2022/11/03 02:51:34;;;;;;;5.57;3.73;;;7.40;99.90;;;-141.84;77.51;19078.19;5032864;28;20218;-61
2022/11/03 02:54:09;;;;;;;8.60;3.80;;;7.50;99.90;;;-141.84;77.54;19094.44;5032837;28;20359;-61
2022/11/03 02:56:49;;;;;;;5.93;3.40;;;7.40;99.90;;;-141.84;76.19;19122.91;5033446;28;20245;-60
2022/11/03 02:59:24;;;;;;;6.20;3.17;;;7.50;99.90;;;-141.84;75.53;19157.44;5033388;28;20229;-60
2022/11/03 03:02:02;;;;;;;6.73;3.90;;;7.60;99.90;;;-141.84;75.12;19129.00;5033395;28;20575;-61
2022/11/03 03:04:36;;;;;;;5.63;3.27;;;7.60;99.90;;;-141.84;74.69;19147.28;5033017;28;20186;-60
2022/11/03 03:07:10;;;;;;;8.87;3.80;;;7.60;99.90;;;-141.84;74.90;19131.03;5033253;28;20735;-61
2022/11/03 03:09:44;;;;;;;7.53;3.57;;;7.70;99.90;;;-141.84;76.09;19100.53;5032737;28;20236;-61
2022/11/03 03:12:20;;;;;;;5.70;3.53;;;7.60;99.90;;;-141.84;75.81;19092.41;5032826;28;20229;-60
2022/11/03 03:14:50;;;;;;;7.60;3.20;;;7.70;99.90;;;-141.84;75.45;19106.66;5032669;28;20278;-61
2022/11/03 03:17:25;;;;;;;7.53;3.53;;;7.60;99.90;;;-141.84;75.92;19082.25;5032713;28;20234;-63
2022/11/03 03:20:02;;;;;;;7.07;3.60;;;7.60;99.90;;;-141.84;75.61;19100.53;5032790;28;20224;-60
2022/11/03 03:22:39;;;;;;;6.60;3.30;;;7.60;99.90;;;-141.84;75.89;19100.53;5032409;28;20212;-61
2022/11/03 03:25:15;;;;;;;10.53;3.57;;;7.60;99.90;;;-141.84;75.85;19074.13;5032867;28;20178;-61
2022/11/03 03:27:51;;;;;;;7.43;3.57;;;7.60;99.90;;;-141.84;75.28;19116.81;5032331;28;20237;-59
2022/11/03 03:30:19;;;;;;;5.43;3.27;;;7.60;99.90;;;-141.84;75.98;19104.59;5032563;28;20225;-60
2022/11/03 03:32:52;;;;;;;7.00;3.00;;;7.50;99.90;;;-141.84;76.41;19120.88;5032821;28;20226;-60
2022/11/03 03:35:26;;;;;;;10.43;3.60;;;7.50;99.90;;;-141.84;76.20;19108.69;5032386;28;20226;-60
2022/11/03 03:38:01;;;;;;;7.10;3.03;;;7.60;99.90;;;-141.84;75.74;19076.16;5032141;28;20229;-63
2022/11/03 03:40:36;;;;;;;10.23;3.73;;;7.60;99.90;;;-141.84;76.47;19059.91;5032083;28;20197;-62
2022/11/03 03:43:12;;;;;;;9.77;3.87;;;7.50;99.90;;;-141.84;76.86;19066.00;5032916;28;20193;-59
2022/11/03 03:45:44;;;;;;;5.70;3.00;;;7.50;99.90;;;-141.84;77.44;19029.44;5031232;28;20768;-61
2022/11/03 03:48:13;;;;;;;6.80;2.93;;;7.40;99.90;;;-141.84;76.78;19072.09;5031776;28;20840;-60
2022/11/03 03:50:45;;;;;;;7.73;3.40;;;7.40;99.90;;;-141.84;75.96;19088.34;5032108;28;20229;-61
2022/11/03 03:53:17;;;;;;;7.63;3.10;;;7.50;99.90;;;-141.84;76.07;19116.81;5031913;28;20716;-62
2022/11/03 03:55:50;;;;;;;8.27;3.20;;;7.50;99.90;;;-141.84;75.34;19096.47;5031736;28;20303;-61
2022/11/03 03:58:19;;;;;;;6.07;2.80;;;7.60;99.90;;;-141.84;76.17;19057.88;5032290;28;20189;-60
2022/11/03 04:00:47;;;;;;;7.30;3.20;;;7.50;99.90;;;-141.84;75.90;19100.53;5032165;28;20218;-61
2022/11/03 04:03:19;;;;;;;9.53;3.33;;;7.50;99.90;;;-141.84;75.23;19100.53;5032013;28;20248;-62
2022/11/03 04:05:48;;;;;;;7.70;3.63;;;7.60;99.90;;;-141.84;74.92;19106.66;5031883;28;20229;-59
2022/11/03 04:08:17;;;;;;;6.60;3.03;;;7.60;99.90;;;-141.84;74.61;19106.66;5031674;28;20226;-59
2022/11/03 04:24:33;;;;;;;7.03;3.10;;;7.30;99.90;;;-141.84;77.46;19049.75;5031145;28;20225;-59
2022/11/03 04:27:19;;;;;;;7.57;3.40;;;7.30;99.90;;;-141.84;77.38;19055.84;5031448;28;20268;-61
2022/11/03 04:29:48;;;;;;;6.43;3.40;;;7.30;99.90;;;-141.84;75.73;19080.22;5031507;28;20672;-59
2022/11/03 04:32:18;;;;;;;7.60;3.50;;;7.40;99.90;;;-141.84;75.31;19094.44;5031555;28;20439;-60
2022/11/03 04:34:48;;;;;;;6.43;3.30;;;7.40;99.90;;;-141.84;74.59;19104.59;5031251;28;20717;-62
2022/11/03 04:37:17;;;;;;;7.93;2.97;;;7.50;99.90;;;-141.84;75.09;19104.59;5031844;28;20213;-62
2022/11/03 04:39:45;;;;;;;5.93;2.93;;;7.50;99.90;;;-141.84;75.46;19094.44;5031096;28;20229;-60
2022/11/03 04:42:17;;;;;;;3.97;2.97;;;7.40;99.90;;;-141.84;76.03;19070.06;5031357;28;20666;-60
2022/11/03 04:44:48;;;;;;;6.70;3.20;;;7.40;99.90;;;-141.84;76.81;19086.31;5030639;28;20273;-61
2022/11/03 04:47:18;;;;;;;5.97;3.00;;;7.30;99.90;;;-141.84;76.91;19029.44;5031192;28;20237;-60
2022/11/03 04:49:48;;;;;;;7.90;3.43;;;7.30;99.90;;;-141.84;76.51;19057.88;5031198;28;20236;-61
2022/11/03 04:52:21;;;;;;;6.23;3.30;;;7.20;99.90;;;-141.84;76.97;19076.16;5031736;28;20205;-61
2022/11/03 04:54:53;;;;;;;6.23;2.83;;;7.20;99.90;;;-141.84;77.53;19061.94;5031157;28;20213;-60
2022/11/03 04:57:21;;;;;;;4.50;2.87;;;7.10;99.90;;;-141.84;77.46;19066.00;5030533;28;20588;-60
2022/11/03 04:59:50;;;;;;;6.03;3.00;;;7.20;99.90;;;-141.84;77.90;19035.53;5031038;28;20234;-61
2022/11/03 05:02:21;;;;;;;5.67;2.90;;;7.00;99.90;;;-141.84;78.43;19041.63;5031047;28;20232;-60
2022/11/03 05:04:49;;;;;;;4.17;2.73;;;7.00;99.90;;;-141.84;76.92;19066.00;5030915;28;20225;-59
2022/11/03 05:07:30;;;;;;;7.10;3.40;;;7.10;99.90;;;-141.84;76.39;19057.88;5031100;28;20214;-62
2022/11/03 05:10:00;;;;;;;8.97;3.07;;;7.20;99.90;;;-141.84;75.82;19074.13;5031319;28;20206;-62
2022/11/03 05:12:29;;;;;;;6.30;3.13;;;7.20;99.90;;;-141.84;75.12;19066.00;5030629;28;20839;-60
2022/11/03 05:14:59;;;;;;;6.90;3.67;;;7.30;99.90;;;-141.84;74.57;19084.28;5030237;28;20240;-61
2022/11/03 05:17:29;;;;;;;5.47;3.00;;;7.30;99.90;;;-141.84;74.78;19041.63;5030678;28;20230;-60
2022/11/03 05:20:01;;;;;;;4.80;2.90;;;7.30;99.90;;;-141.84;75.79;19080.22;5030577;28;20225;-60
2022/11/03 05:22:35;;;;;;;6.73;3.50;;;7.30;99.90;;;-141.84;75.22;19088.34;5030531;28;20669;-61
2022/11/03 05:25:34;;;;;;;6.20;2.90;;;7.30;99.90;;;-141.84;76.08;19025.38;5031209;28;20239;-61
2022/11/03 05:28:02;;;;;;;8.17;3.40;;;7.20;99.90;;;-141.84;77.12;19041.63;5030322;28;20244;-60
2022/11/03 05:30:32;;;;;;;5.57;3.87;;;7.10;99.90;;;-141.84;76.96;19025.38;5030492;28;20229;-60
2022/11/03 05:33:00;;;;;;;7.93;3.30;;;7.10;99.90;;;-141.84;77.11;19037.56;5030579;28;20226;-60
2022/11/03 05:35:28;;;;;;;5.90;3.03;;;7.10;99.90;;;-141.84;77.68;19039.59;5030311;28;20275;-60
2022/11/03 05:37:56;;;;;;;4.93;3.20;;;7.00;99.90;;;-141.84;78.31;19011.13;5042719;28;20236;-62
2022/11/03 05:40:26;;;;;;;6.47;3.10;;;6.90;99.90;;;-141.84;78.87;19017.25;5040469;28;20272;-59
2022/11/03 05:43:00;;;;;;;5.30;2.80;;;6.80;99.90;;;-141.84;78.89;19000.97;5010957;28;20210;-61
2022/11/03 05:45:34;;;;;;;5.40;2.97;;;6.80;99.90;;;-141.84;78.82;19017.25;5010809;28;20237;-61
2022/11/03 05:48:13;;;;;;;4.23;2.80;;;6.80;99.90;;;-141.84;78.20;19015.19;5024777;28;20230;-61
2022/11/03 05:50:42;;;;;;;3.97;2.93;;;6.80;99.90;;;-141.84;78.69;18996.91;5019254;28;20653;-61
2022/11/03 05:53:26;;;;;;;5.80;2.50;;;6.70;99.90;;;-141.84;79.12;18984.72;5010243;28;20710;-61
2022/11/03 05:55:56;;;;;;;7.27;3.77;;;6.70;99.90;;;-141.84;78.87;18992.84;5015010;28;20245;-61
2022/11/03 05:58:31;;;;;;;6.13;3.40;;;6.70;99.90;;;-141.84;77.65;18990.81;5029617;28;20638;-60
2022/11/03 06:01:04;;;;;;;8.50;3.43;;;6.70;99.90;;;-141.84;76.77;19015.19;5011045;28;20203;-60
2022/11/03 06:03:36;;;;;;;5.27;3.17;;;6.80;99.90;;;-141.84;76.13;19013.16;5010579;28;20253;-60
2022/11/03 06:06:18;;;;;;;8.13;3.20;;;6.90;99.90;;;-141.84;76.48;19035.53;5024543;28;20226;-59
2022/11/03 06:08:47;;;;;;;7.47;2.90;;;6.90;99.90;;;-141.84;75.98;19037.56;5049455;28;20229;-59
2022/11/03 06:11:27;;;;;;;5.53;3.43;;;6.90;99.90;;;-141.84;76.86;19023.34;5053618;28;20244;-61
2022/11/03 06:13:57;;;;;;;5.97;2.97;;;6.90;99.90;;;-141.84;75.93;19047.72;5053752;28;20258;-60
2022/11/03 06:16:41;;;;;;;6.47;2.90;;;6.90;99.90;;;-141.84;74.31;19043.66;5053969;28;20331;-62
2022/11/03 06:19:30;;;;;;;9.67;3.23;;;7.10;99.90;;;-141.84;74.24;19051.78;5054362;28;20640;-60
2022/11/03 06:22:06;;;;;;;6.20;3.27;;;7.10;99.90;;;-141.84;75.28;19041.63;5053921;28;20209;-61
2022/11/03 06:24:34;;;;;;;8.67;3.23;;;7.10;99.90;;;-141.84;74.25;19066.00;5053825;28;20233;-60
2022/11/03 06:27:03;;;;;;;4.47;2.80;;;7.20;99.90;;;-141.84;74.06;19063.97;5053327;28;20225;-60
2022/11/03 06:29:33;;;;;;;6.40;3.43;;;7.20;99.90;;;-141.84;73.36;19082.25;5053437;28;20229;-60
2022/11/03 06:32:02;;;;;;;4.93;3.17;;;7.30;99.90;;;-141.84;73.25;19108.69;5052495;28;20232;-61
2022/11/03 06:34:45;;;;;;;9.07;3.97;;;7.40;99.90;;;-141.84;73.69;19078.19;5032457;28;20198;-62
2022/11/03 06:37:22;;;;;;;7.07;3.33;;;7.40;99.90;;;-141.84;73.11;19070.06;5020435;28;20287;-61
2022/11/03 06:39:58;;;;;;;7.50;2.97;;;7.40;99.90;;;-141.84;73.15;19102.56;5029569;28;20206;-61
2022/11/03 06:42:31;;;;;;;8.63;3.13;;;7.50;99.90;;;-141.84;72.64;19106.66;5013372;28;20284;-59
2022/11/03 06:45:02;;;;;;;9.60;2.90;;;7.60;99.90;;;-141.84;72.07;19104.59;5013201;28;20250;-63
2022/11/03 06:47:33;;;;;;;8.07;3.07;;;7.70;99.90;;;-141.84;72.77;19131.03;5013136;28;20234;-60
2022/11/03 06:50:03;;;;;;;7.23;2.83;;;7.80;99.90;;;-141.84;71.50;19135.09;5013622;28;20600;-60
2022/11/03 06:52:37;;;;;;;6.00;2.93;;;7.90;99.90;;;-141.84;71.37;19157.44;5013543;28;20190;-61
2022/11/03 06:55:29;;;;;;;5.97;3.20;;;8.00;99.90;;;-141.84;70.41;19163.53;5013561;28;20187;-60
2022/11/03 06:58:02;;;;;;;5.97;3.00;;;8.00;99.90;;;-141.84;70.26;19177.75;5009884;28;20238;-60
2022/11/03 07:00:31;;;;;;;7.57;3.03;;;8.10;99.90;;;-141.84;71.12;19159.47;5013310;28;20233;-60
2022/11/03 07:03:14;;;;;;;7.23;3.07;;;8.10;99.90;;;-141.84;70.65;19204.19;5013051;28;20304;-60
2022/11/03 07:05:44;;;;;;;9.47;2.80;;;8.10;99.90;;;-141.84;70.19;19177.75;5013138;28;20781;-59
2022/11/03 07:08:23;;;;;;;8.37;3.77;;;8.20;99.90;;;-141.84;69.94;19204.19;5020094;28;20229;-62
2022/11/03 07:10:59;;;;;;;6.50;3.50;;;8.30;99.90;;;-141.84;70.17;19206.22;5033091;28;20218;-61
2022/11/03 07:13:30;;;;;;;7.43;3.27;;;8.30;99.90;;;-141.84;69.74;19187.91;5032922;28;20194;-62
2022/11/03 07:15:58;;;;;;;7.47;3.30;;;8.30;99.90;;;-141.84;70.59;19194.03;5033588;28;20210;-60
2022/11/03 07:18:33;;;;;;;5.30;2.77;;;8.40;99.90;;;-141.84;69.77;19216.38;5032802;28;20242;-62
2022/11/03 07:21:15;;;;;;;8.10;3.20;;;8.40;99.90;;;-141.84;68.86;19248.88;5031081;28;20226;-61
2022/11/03 07:23:43;;;;;;;5.87;2.90;;;8.50;99.90;;;-141.84;69.45;19210.28;5032457;28;20229;-61
2022/11/03 07:26:14;;;;;;;4.87;3.03;;;8.50;99.90;;;-141.84;69.41;19216.38;5032727;28;20236;-60
2022/11/03 07:28:42;;;;;;;5.57;3.23;;;8.60;99.90;;;-141.84;69.55;19236.69;5027879;28;20261;-60
2022/11/03 07:31:18;;;;;;;4.97;3.33;;;8.60;99.90;;;-141.84;70.25;19212.31;5013397;28;20242;-61
2022/11/03 07:33:48;;;;;;;5.63;3.20;;;8.60;99.90;;;-141.84;69.70;19208.25;5027574;28;20221;-61
2022/11/03 07:36:21;;;;;;;7.33;3.23;;;8.70;99.90;;;-141.84;69.15;19248.88;5032275;28;20279;-60
2022/11/03 07:38:53;;;;;;;4.63;2.60;;;8.70;99.90;;;-141.84;67.67;19250.91;5031966;28;20276;-61
2022/11/03 07:41:25;;;;;;;5.80;3.20;;;8.80;99.90;;;-141.84;67.91;19257.00;5031955;28;20237;-61
2022/11/03 07:44:01;;;;;;;5.43;2.40;;;8.90;99.90;;;-141.84;68.10;19277.34;5031656;28;20638;-61
2022/11/03 07:46:30;;;;;;;4.53;2.40;;;9.00;99.90;;;-141.84;67.27;19281.41;5031987;28;20285;-62
2022/11/03 07:49:03;;;;;;;5.77;2.50;;;9.10;99.90;;;-141.84;66.70;19313.91;5032100;28;20202;-61
2022/11/03 07:51:33;;;;;;;5.73;2.23;;;9.20;99.90;;;-141.84;66.20;19326.09;5031933;28;20752;-61
2022/11/03 07:54:12;;;;;;;8.57;2.70;;;9.30;99.90;;;-141.84;65.82;19350.50;5031478;28;20237;-61
2022/11/03 07:56:46;;;;;;;7.00;2.50;;;9.30;99.90;;;-141.84;66.17;19364.72;5031896;28;20241;-61
2022/11/03 07:59:19;;;;;;;5.23;2.47;;;9.40;99.90;;;-141.84;65.62;19320.00;5031860;28;20275;-61
2022/11/03 08:01:50;;;;;;;6.50;2.40;;;9.50;99.90;;;-141.84;65.72;19346.44;5031863;28;20232;-61
2022/11/03 08:04:24;;;;;;;4.20;2.50;;;9.70;99.90;;;-141.84;65.11;19376.91;5032075;28;20197;-59
2022/11/03 08:06:52;;;;;;;6.07;2.47;;;9.80;99.90;;;-141.84;64.91;19417.56;5032068;28;20228;-60
2022/11/03 08:09:21;;;;;;;5.90;2.37;;;9.90;99.90;;;-141.84;63.01;19452.09;5028446;28;20229;-61
2022/11/03 08:11:50;;;;;;;6.60;2.67;;;10.10;99.90;;;-141.84;62.65;19476.47;5032301;28;20524;-60
2022/11/03 08:14:18;;;;;;;5.07;2.30;;;10.30;99.90;;;-141.84;62.04;19474.44;5032212;28;20634;-60
2022/11/03 08:16:46;;;;;;;3.47;2.20;;;10.50;99.90;;;-141.84;61.83;19496.81;5031865;28;20632;-61
2022/11/03 08:19:14;;;;;;;5.20;2.23;;;10.60;99.90;;;-141.84;61.83;19504.94;5032456;28;20265;-60
2022/11/03 08:21:43;;;;;;;5.93;2.30;;;10.70;99.90;;;-141.84;60.77;19545.56;5031794;28;20575;-60
2022/11/03 08:24:11;;;;;;;5.90;2.50;;;10.90;99.90;;;-141.84;59.69;19549.63;5031366;28;20237;-61
2022/11/03 08:26:39;;;;;;;9.23;2.37;;;11.00;99.90;;;-141.84;58.82;19626.88;5031631;28;20239;-60
2022/11/03 08:29:08;;;;;;;6.93;2.60;;;11.30;99.90;;;-141.84;58.57;19671.56;5031207;28;20232;-61
2022/11/03 08:31:36;;;;;;;6.53;2.20;;;11.40;99.90;;;-141.84;57.93;19657.34;5031774;28;20206;-61
2022/11/03 08:34:04;;;;;;;4.83;2.90;;;11.50;99.90;;;-141.84;58.32;19624.84;5032329;28;20565;-60
2022/11/03 08:36:32;;;;;;;5.00;1.93;;;11.60;99.90;;;-141.84;58.37;19683.78;5031640;28;20226;-59
2022/11/03 08:39:02;;;;;;;6.00;2.10;;;11.60;99.90;;;-141.84;57.46;19687.84;5031041;28;20231;-60
2022/11/03 08:41:30;;;;;;;6.53;2.47;;;11.70;99.90;;;-141.84;57.69;19641.09;5031466;28;20257;-60
2022/11/03 08:43:58;;;;;;;7.57;2.00;;;11.70;99.90;;;-141.84;57.69;19698.00;5031065;28;20713;-61
2022/11/03 08:46:27;;;;;;;5.07;1.90;;;11.70;99.90;;;-141.84;57.17;19708.16;5031483;28;20195;-60
2022/11/03 08:48:56;;;;;;;4.33;1.77;;;11.70;99.90;;;-141.84;57.40;19659.38;5031979;28;20198;-60
2022/11/03 08:51:24;;;;;;;7.63;2.20;;;11.70;99.90;;;-141.84;58.04;19706.13;5031613;28;20252;-60
2022/11/03 08:53:52;;;;;;;3.83;1.87;;;11.70;99.90;;;-141.84;57.06;19700.03;5030726;28;20229;-60
2022/11/03 08:56:22;;;;;;;5.67;2.20;;;11.80;99.90;;;-141.84;57.34;19726.44;5031200;28;20721;-60
2022/11/03 08:58:50;;;;;;;5.87;2.27;;;11.90;99.90;;;-141.84;56.60;19742.72;5030873;28;20229;-59
2022/11/03 09:01:18;;;;;;;4.97;2.30;;;12.00;99.90;;;-141.84;56.34;19746.78;5031054;28;20594;-59
2022/11/03 09:03:47;;;;;;;4.53;2.20;;;12.00;99.90;;;-141.84;55.86;19779.28;5030968;28;20225;-63
2022/11/03 09:06:15;;;;;;;7.77;2.30;;;12.10;99.90;;;-141.84;56.00;19765.06;5030978;28;20232;-60
2022/11/03 09:08:43;;;;;;;4.97;1.87;;;12.10;99.90;;;-141.84;56.08;19775.22;5030391;28;20230;-60
2022/11/03 09:11:32;;;;;;;8.17;2.20;;;12.10;99.90;;;-141.84;56.36;19765.06;5030798;28;20794;-59
2022/11/03 09:14:00;;;;;;;6.23;1.90;;;12.10;99.90;;;-141.84;55.82;19744.75;5030677;28;20230;-63
2022/11/03 09:16:28;;;;;;;5.63;1.70;;;12.10;99.90;;;-141.84;56.56;19730.50;5030878;28;20202;-60
2022/11/03 09:18:56;;;;;;;5.53;2.10;;;12.10;99.90;;;-141.84;56.37;19769.13;5030704;28;20252;-61
2022/11/03 09:21:24;;;;;;;7.70;2.07;;;12.10;99.90;;;-141.84;55.12;19819.94;5024438;28;20258;-60
2022/11/03 09:23:52;;;;;;;5.43;1.93;;;12.40;99.90;;;-141.84;55.68;19809.78;5010482;28;20230;-60
2022/11/03 09:26:20;;;;;;;7.87;2.03;;;12.30;99.90;;;-141.84;56.34;19767.09;5025993;28;20225;-60
2022/11/03 09:28:50;;;;;;;7.82;2.40;;;12.20;99.90;;;-141.84;56.62;19807.75;5030327;28;20245;-60
2022/11/03 09:31:19;;;;;;;6.63;2.28;;;12.20;99.90;;;-141.84;56.07;19801.66;5030787;28;20210;-60
2022/11/03 09:33:47;;;;;;;6.68;3.25;;;12.10;99.90;;;-141.84;56.14;19777.25;5030191;28;20209;-61
2022/11/03 09:36:15;;;;;;;7.90;2.40;;;12.20;99.90;;;-141.84;56.29;19761.00;5030289;28;20608;-62
2022/11/03 09:38:43;;;;;;;9.25;2.00;;;12.20;99.90;;;-141.84;56.01;19787.41;5030313;28;20234;-59
2022/11/03 09:41:16;;;;;;;4.03;1.73;;;12.20;99.90;;;-141.84;56.70;19824.00;5030008;28;20230;-61
2022/11/03 09:43:59;;;;;;;5.30;1.93;;;12.10;99.90;;;-141.84;56.98;19781.31;5030671;28;20225;-59
2022/11/03 09:46:29;;;;;;;3.15;1.75;;;12.10;99.90;;;-141.84;56.54;19826.03;5034163;28;20193;-60
2022/11/03 09:48:59;;;;;;;7.78;2.10;;;12.20;99.90;;;-141.84;55.90;19797.59;5034562;28;20182;-60
2022/11/03 09:51:28;;;;;;;4.68;1.80;;;12.20;99.90;;;-141.84;56.18;19815.88;5034056;28;20798;-61
2022/11/03 09:53:59;;;;;;;4.03;2.00;;;12.20;99.90;;;-141.84;55.93;19828.06;5034104;28;20222;-59
2022/11/03 09:56:27;;;;;;;6.03;2.28;;;12.30;99.90;;;-141.84;55.50;19858.56;5034605;28;20225;-61
2022/11/03 09:58:57;;;;;;;4.95;2.00;;;12.30;99.90;;;-141.84;54.65;19889.03;5033435;28;20229;-61
2022/11/03 10:01:25;;;;;;;3.80;1.80;;;12.40;99.90;;;-141.84;54.24;19901.22;5033554;28;20744;-60
2022/11/03 10:03:59;;;;;;;4.97;1.70;;;12.50;99.90;;;-141.84;53.91;19872.78;5034740;28;20198;-60
2022/11/03 10:06:27;;;;;;;4.38;1.65;;;12.50;99.90;;;-141.84;53.84;19893.09;5033615;28;20716;-60
2022/11/03 10:08:55;;;;;;;4.45;1.73;;;12.60;99.90;;;-141.84;53.46;19937.81;5033431;28;20225;-59
2022/11/03 10:11:23;;;;;;;3.17;1.52;;;12.70;99.90;;;-141.84;54.05;19915.47;5033997;28;20225;-59
2022/11/03 10:13:56;;;;;;;5.32;1.88;;;12.70;99.90;;;-141.84;54.21;19927.66;5033751;28;20275;-59
2022/11/03 10:16:26;;;;;;;3.78;2.05;;;12.80;99.90;;;-141.84;54.29;19878.88;5034075;28;20536;-59
2022/11/03 10:18:54;;;;;;;5.88;1.90;;;12.80;99.90;;;-141.84;54.00;19899.19;5017407;28;20740;-60
2022/11/03 10:21:32;;;;;;;4.90;1.85;;;12.90;99.90;;;-141.84;53.80;19943.91;5018932;28;20298;-59
2022/11/03 10:24:00;;;;;;;3.50;1.92;;;12.80;99.90;;;-141.84;53.83;19943.91;5033374;28;20720;-60
2022/11/03 10:26:34;;;;;;;6.13;1.85;;;12.90;99.90;;;-141.84;53.38;19984.56;5033418;28;20649;-61
2022/11/03 10:29:08;;;;;;;5.93;2.15;;;13.00;99.90;;;-141.84;52.52;20010.97;5033432;28;20225;-60
2022/11/03 10:31:38;;;;;;;6.85;2.55;;;13.10;99.90;;;-141.84;53.01;19968.31;5033073;28;20592;-61
2022/11/03 10:34:27;;;;;;;5.88;2.15;;;13.20;99.90;;;-141.84;52.38;20061.78;5033924;28;20602;-60
2022/11/03 10:37:19;;;;;;;3.35;1.60;;;13.30;99.90;;;-141.84;51.42;20065.84;5029439;28;20218;-60
2022/11/03 10:39:49;;;;;;;3.00;1.70;;;13.40;99.90;;;-141.84;50.77;20112.59;5026970;28;20218;-61
2022/11/03 10:42:21;;;;;;;6.65;1.80;;;13.60;99.90;;;-141.84;50.45;20057.72;5024826;28;20753;-60
2022/11/03 10:44:54;;;;;;;4.07;1.48;;;13.60;99.90;;;-141.84;50.42;20102.44;5019553;28;20245;-62
2022/11/03 10:47:33;;;;;;;4.05;1.50;;;13.60;99.90;;;-141.84;50.74;20090.25;5023006;28;20289;-61